Time;durP1;ratioP1;P1;durP2;ratioP2;P2;SDS_P1;SDS_P2;PMS_P1;PMS_P2;Temp;Humidity;BMP_temperature;BMP_pressure;BME280_temperature;BME280_humidity;BME280_pressure;Samples;Min_cycle;Max_cycle;Signal;HPM_P1;HPM_P2
2022/03/09 00:00:10;;;;;;;19.00;10.45;;;4.40;88.90;;;;;;1872814;76;21035;-47
2022/03/09 00:02:40;;;;;;;16.15;10.55;;;4.40;89.00;;;;;;1872788;76;21051;-47
2022/03/09 00:05:10;;;;;;;16.73;11.35;;;4.40;89.20;;;;;;1872778;77;21023;-46
2022/03/09 00:07:39;;;;;;;15.32;11.33;;;4.50;89.00;;;;;;1872753;75;21003;-47
2022/03/09 00:10:09;;;;;;;17.32;10.28;;;4.50;88.80;;;;;;1872880;77;21097;-46
2022/03/09 00:12:38;;;;;;;20.70;10.68;;;4.40;88.50;;;;;;1872793;76;21051;-46
2022/03/09 00:15:08;;;;;;;15.23;11.18;;;4.40;88.80;;;;;;1872853;76;21058;-46
2022/03/09 00:17:38;;;;;;;15.72;10.85;;;4.40;88.80;;;;;;1872736;77;21143;-46
2022/03/09 00:20:08;;;;;;;19.25;11.30;;;4.30;88.70;;;;;;1872881;76;21030;-47
2022/03/09 00:22:37;;;;;;;16.90;10.18;;;4.30;88.80;;;;;;1872850;77;21027;-47
2022/03/09 00:25:07;;;;;;;18.92;12.82;;;4.30;89.00;;;;;;1872737;77;21031;-47
2022/03/09 00:27:36;;;;;;;21.48;12.98;;;4.30;89.10;;;;;;1872753;77;21007;-47
2022/03/09 00:30:06;;;;;;;21.52;12.73;;;4.30;89.00;;;;;;1872710;77;21093;-46
2022/03/09 00:32:40;;;;;;;21.77;11.95;;;4.30;88.90;;;;;;1872808;77;21023;-46
2022/03/09 00:35:10;;;;;;;21.62;11.55;;;4.40;89.20;;;;;;1872819;77;21042;-49
2022/03/09 00:37:39;;;;;;;18.25;11.38;;;4.30;89.00;;;;;;1872817;76;21080;-46
2022/03/09 00:40:09;;;;;;;16.75;10.90;;;4.30;89.20;;;;;;1872825;77;21101;-46
2022/03/09 00:42:40;;;;;;;18.98;11.95;;;4.40;89.40;;;;;;1872841;77;21023;-48
2022/03/09 00:45:10;;;;;;;18.42;11.85;;;4.40;89.30;;;;;;1872726;76;21092;-46
2022/03/09 00:47:40;;;;;;;18.75;11.55;;;4.40;89.40;;;;;;1872900;77;21007;-48
2022/03/09 00:50:09;;;;;;;14.63;9.60;;;4.40;89.40;;;;;;1872770;76;21097;-47
2022/03/09 00:52:39;;;;;;;13.35;9.35;;;4.40;89.20;;;;;;1872809;77;21104;-47
2022/03/09 00:55:09;;;;;;;13.88;9.45;;;4.40;89.10;;;;;;1872830;77;21011;-46
2022/03/09 00:57:38;;;;;;;14.98;10.10;;;4.40;88.80;;;;;;1872734;77;21477;-46
2022/03/09 01:00:09;;;;;;;16.97;10.23;;;4.30;89.00;;;;;;1872782;77;21031;-47
2022/03/09 01:02:46;;;;;;;14.50;9.88;;;4.30;89.30;;;;;;1872878;77;21027;-48
2022/03/09 01:05:15;;;;;;;18.40;11.33;;;4.40;89.20;;;;;;1872802;77;21129;-46
2022/03/09 01:07:45;;;;;;;16.30;10.78;;;4.40;89.20;;;;;;1872703;76;21110;-47
2022/03/09 01:10:15;;;;;;;17.62;11.25;;;4.30;89.00;;;;;;1872673;77;21046;-47
2022/03/09 01:12:45;;;;;;;18.77;10.75;;;4.30;89.10;;;;;;1886548;76;21124;-46
2022/03/09 01:15:14;;;;;;;18.70;11.57;;;4.40;89.40;;;;;;1891445;75;21022;-47
2022/03/09 01:17:43;;;;;;;15.95;10.03;;;4.40;89.40;;;;;;1891449;76;21018;-46
2022/03/09 01:20:14;;;;;;;19.10;11.22;;;4.40;88.50;;;;;;1891452;76;21018;-47
2022/03/09 01:22:43;;;;;;;19.65;10.80;;;4.30;88.50;;;;;;1891748;76;21022;-48
2022/03/09 01:25:12;;;;;;;18.80;10.50;;;4.30;88.70;;;;;;1891632;76;20995;-47
2022/03/09 01:27:42;;;;;;;17.52;11.05;;;4.20;88.90;;;;;;1891604;75;21026;-47
2022/03/09 01:30:11;;;;;;;22.95;11.78;;;4.20;89.20;;;;;;1891763;76;21038;-47
2022/03/09 01:32:41;;;;;;;21.17;11.05;;;4.30;89.40;;;;;;1891638;76;21072;-46
2022/03/09 01:35:10;;;;;;;18.10;10.35;;;4.20;89.40;;;;;;1891535;76;21003;-46
2022/03/09 01:37:40;;;;;;;16.27;10.72;;;4.30;89.40;;;;;;1891607;76;21091;-47
2022/03/09 01:40:10;;;;;;;18.15;11.05;;;4.30;89.40;;;;;;1891638;76;21492;-46
2022/03/09 01:42:39;;;;;;;18.85;10.50;;;4.30;89.50;;;;;;1891557;76;21092;-47
2022/03/09 01:45:11;;;;;;;17.55;11.45;;;4.30;89.40;;;;;;1891541;76;21069;-47
2022/03/09 01:47:41;;;;;;;14.95;9.75;;;4.40;89.50;;;;;;1891778;76;21014;-46
2022/03/09 01:50:10;;;;;;;16.95;10.43;;;4.40;89.40;;;;;;1891617;76;21034;-46
2022/03/09 01:52:41;;;;;;;17.75;10.98;;;4.40;89.70;;;;;;1891607;76;21104;-48
2022/03/09 01:55:11;;;;;;;19.95;11.40;;;4.40;89.70;;;;;;1891750;76;21100;-47
2022/03/09 01:57:41;;;;;;;16.32;10.45;;;4.40;89.70;;;;;;1891603;76;21046;-46
2022/03/09 02:00:11;;;;;;;19.42;10.20;;;4.40;89.50;;;;;;1891597;76;21100;-48
2022/03/09 02:02:42;;;;;;;20.48;11.03;;;4.50;89.50;;;;;;1891729;76;21022;-47
2022/03/09 02:05:11;;;;;;;14.95;9.38;;;4.50;89.50;;;;;;1891636;76;21030;-46
2022/03/09 02:10:28;;;;;;;16.50;10.45;;;4.50;89.30;;;;;;1891715;76;21100;-47
2022/03/09 02:12:58;;;;;;;18.82;9.83;;;4.40;89.40;;;;;;1891600;75;21120;-47
2022/03/09 02:15:27;;;;;;;15.20;10.25;;;4.40;89.50;;;;;;1891540;75;21018;-47
2022/03/09 02:17:59;;;;;;;17.77;11.10;;;4.40;89.60;;;;;;1891506;76;21062;-47
2022/03/09 02:20:27;;;;;;;17.40;10.10;;;4.40;89.70;;;;;;1891427;75;21092;-47
2022/03/09 02:22:58;;;;;;;17.65;10.72;;;4.40;89.70;;;;;;1891493;76;21031;-47
2022/03/09 02:25:27;;;;;;;18.23;10.98;;;4.50;89.90;;;;;;1891653;76;21108;-47
2022/03/09 02:27:57;;;;;;;15.03;10.03;;;4.50;89.90;;;;;;1891551;76;21003;-47
2022/03/09 02:30:26;;;;;;;17.95;10.80;;;4.50;90.00;;;;;;1891612;76;21070;-47
2022/03/09 02:32:55;;;;;;;18.95;9.75;;;4.50;89.90;;;;;;1891478;76;21380;-49
2022/03/09 02:35:25;;;;;;;14.47;10.10;;;4.50;89.80;;;;;;1891605;76;21035;-47
2022/03/09 02:37:54;;;;;;;16.12;9.85;;;4.50;89.80;;;;;;1891614;76;21033;-46
2022/03/09 02:40:24;;;;;;;17.17;10.68;;;4.50;90.00;;;;;;1891492;76;21034;-48
2022/03/09 02:42:53;;;;;;;17.05;10.48;;;4.60;90.00;;;;;;1891547;76;21030;-47
2022/03/09 02:45:22;;;;;;;17.17;10.43;;;4.60;90.00;;;;;;1891636;76;21534;-47
2022/03/09 02:47:52;;;;;;;19.05;11.70;;;4.60;89.90;;;;;;1891493;76;21046;-47
2022/03/09 02:50:21;;;;;;;17.37;9.40;;;4.60;89.90;;;;;;1891542;76;21022;-47
2022/03/09 02:52:50;;;;;;;15.38;9.78;;;4.60;90.00;;;;;;1891588;76;21069;-46
2022/03/09 02:55:20;;;;;;;15.93;9.23;;;4.60;90.00;;;;;;1891496;76;21092;-46
2022/03/09 02:57:49;;;;;;;18.50;11.15;;;4.60;90.00;;;;;;1891515;76;21026;-49
2022/03/09 03:00:18;;;;;;;17.55;11.03;;;4.60;90.10;;;;;;1891426;76;21026;-46
2022/03/09 03:02:48;;;;;;;23.92;11.30;;;4.60;90.10;;;;;;1891481;76;21043;-47
2022/03/09 03:05:17;;;;;;;18.57;10.15;;;4.70;90.10;;;;;;1891444;76;21084;-47
2022/03/09 03:07:46;;;;;;;22.27;12.05;;;4.60;90.10;;;;;;1891622;76;21069;-49
2022/03/09 03:10:16;;;;;;;17.60;10.98;;;4.60;90.00;;;;;;1891494;76;21038;-47
2022/03/09 03:12:45;;;;;;;17.25;10.75;;;4.60;89.90;;;;;;1891443;76;21034;-46
2022/03/09 03:15:15;;;;;;;21.27;12.28;;;4.50;89.80;;;;;;1891476;76;21108;-47
2022/03/09 03:17:44;;;;;;;18.12;10.65;;;4.50;89.50;;;;;;1891509;76;21050;-46
2022/03/09 03:20:13;;;;;;;17.82;10.30;;;4.40;89.30;;;;;;1891581;76;21026;-46
2022/03/09 03:22:43;;;;;;;14.53;10.23;;;4.30;89.30;;;;;;1891523;76;21007;-46
2022/03/09 03:25:12;;;;;;;17.85;11.20;;;4.30;89.60;;;;;;1891509;76;21046;-47
2022/03/09 03:27:42;;;;;;;15.32;9.63;;;4.30;89.80;;;;;;1891585;76;21006;-46
2022/03/09 03:30:11;;;;;;;18.52;10.50;;;4.40;90.00;;;;;;1891429;76;21030;-47
2022/03/09 03:32:41;;;;;;;16.67;11.10;;;4.40;90.10;;;;;;1891414;76;21022;-46
2022/03/09 03:35:10;;;;;;;19.05;11.35;;;4.50;90.10;;;;;;1891442;75;21092;-46
2022/03/09 03:37:41;;;;;;;21.37;12.63;;;4.50;90.00;;;;;;1891521;76;21093;-46
2022/03/09 03:40:11;;;;;;;20.02;12.15;;;4.50;90.00;;;;;;1891421;76;21050;-47
2022/03/09 03:42:40;;;;;;;16.12;10.43;;;4.50;90.10;;;;;;1891451;76;21022;-46
2022/03/09 03:45:10;;;;;;;19.45;11.30;;;4.50;90.00;;;;;;1891446;76;21006;-46
2022/03/09 03:47:39;;;;;;;24.07;12.47;;;4.50;90.00;;;;;;1891593;76;21530;-46
2022/03/09 03:50:09;;;;;;;49.83;31.23;;;4.40;90.00;;;;;;1891428;76;21034;-47
2022/03/09 03:52:38;;;;;;;18.00;11.80;;;4.40;89.70;;;;;;1891553;76;21030;-46
2022/03/09 03:55:08;;;;;;;18.23;10.70;;;4.30;89.40;;;;;;1891431;76;21054;-46
2022/03/09 03:57:37;;;;;;;21.17;11.22;;;4.30;89.20;;;;;;1891510;76;21077;-47
2022/03/09 04:00:08;;;;;;;20.23;11.40;;;4.10;89.30;;;;;;1891530;76;21085;-46
2022/03/09 04:02:37;;;;;;;17.37;10.05;;;4.00;89.50;;;;;;1891640;76;21163;-46
2022/03/09 04:05:07;;;;;;;20.48;11.95;;;4.00;89.90;;;;;;1891586;76;21179;-47
2022/03/09 04:07:37;;;;;;;17.40;10.05;;;4.10;90.10;;;;;;1891517;76;21451;-47
2022/03/09 04:10:06;;;;;;;16.93;10.85;;;4.10;90.10;;;;;;1891452;76;21030;-47
2022/03/09 04:12:35;;;;;;;15.80;10.35;;;4.20;90.20;;;;;;1891417;76;21508;-47
2022/03/09 04:15:05;;;;;;;19.17;10.65;;;4.20;90.10;;;;;;1891626;76;21053;-46
2022/03/09 04:17:45;;;;;;;18.07;11.57;;;4.30;90.00;;;;;;1891428;76;21026;-47
2022/03/09 04:20:15;;;;;;;19.98;12.45;;;4.30;89.80;;;;;;1891489;76;21046;-47
2022/03/09 04:22:45;;;;;;;19.25;12.30;;;4.30;89.90;;;;;;1891440;76;21031;-47
2022/03/09 04:25:14;;;;;;;27.00;13.22;;;4.30;90.00;;;;;;1891327;76;21138;-47
2022/03/09 04:27:43;;;;;;;22.17;14.10;;;4.30;90.00;;;;;;1891390;76;21534;-47
2022/03/09 04:30:13;;;;;;;19.73;10.98;;;4.30;90.00;;;;;;1891385;76;21026;-47
2022/03/09 04:32:43;;;;;;;22.27;11.95;;;4.30;90.00;;;;;;1891450;75;21022;-46
2022/03/09 04:35:12;;;;;;;19.57;13.00;;;4.30;90.00;;;;;;1891421;76;21042;-46
2022/03/09 04:37:42;;;;;;;43.68;18.12;;;4.40;90.10;;;;;;1891550;76;21046;-47
2022/03/09 04:40:12;;;;;;;22.52;12.82;;;4.30;89.90;;;;;;1891471;76;21022;-48
2022/03/09 04:42:41;;;;;;;19.23;11.50;;;4.40;89.80;;;;;;1891451;76;21014;-47
2022/03/09 04:45:11;;;;;;;29.80;11.75;;;4.40;89.90;;;;;;1891498;76;21081;-48
2022/03/09 04:47:41;;;;;;;17.10;10.70;;;4.30;89.90;;;;;;1891562;76;21026;-47
2022/03/09 04:50:11;;;;;;;21.10;13.10;;;4.30;89.50;;;;;;1891388;76;21080;-46
2022/03/09 04:52:40;;;;;;;22.00;11.60;;;4.30;89.40;;;;;;1891500;76;21496;-48
2022/03/09 04:55:10;;;;;;;18.57;11.35;;;4.20;89.50;;;;;;1891392;75;21054;-49
2022/03/09 04:57:40;;;;;;;24.60;11.70;;;4.20;89.60;;;;;;1891454;76;21030;-47
2022/03/09 05:00:09;;;;;;;20.37;13.30;;;4.20;88.70;;;;;;1891391;76;21084;-47
2022/03/09 05:02:39;;;;;;;22.58;11.57;;;4.20;89.00;;;;;;1891620;76;21108;-46
2022/03/09 05:05:08;;;;;;;20.12;10.38;;;4.10;88.80;;;;;;1891608;76;21015;-46
2022/03/09 05:07:41;;;;;;;26.42;10.70;;;4.10;89.10;;;;;;1891531;75;21092;-47
2022/03/09 05:10:12;;;;;;;22.93;12.50;;;4.10;89.30;;;;;;1891584;76;21038;-47
2022/03/09 05:12:41;;;;;;;22.00;12.58;;;4.10;89.40;;;;;;1891472;76;21018;-48
2022/03/09 05:15:11;;;;;;;24.35;11.43;;;4.10;89.50;;;;;;1891483;75;21058;-47
2022/03/09 05:17:46;;;;;;;22.10;12.30;;;4.20;89.30;;;;;;1891500;76;21046;-47
2022/03/09 05:20:16;;;;;;;19.48;12.18;;;4.20;89.60;;;;;;1891593;76;21031;-47
2022/03/09 05:22:45;;;;;;;21.10;12.15;;;4.20;89.20;;;;;;1891640;76;21022;-47
2022/03/09 05:25:15;;;;;;;18.12;10.85;;;4.20;88.90;;;;;;1891471;76;21555;-47
2022/03/09 05:27:44;;;;;;;18.52;10.68;;;4.20;88.60;;;;;;1891487;76;21034;-50
2022/03/09 05:30:14;;;;;;;24.00;14.00;;;4.10;88.80;;;;;;1891554;76;21018;-47
2022/03/09 05:32:43;;;;;;;14.60;10.25;;;4.20;89.20;;;;;;1891497;76;21088;-46
2022/03/09 05:35:12;;;;;;;16.37;11.35;;;4.20;88.40;;;;;;1891594;76;21099;-47
2022/03/09 05:37:44;;;;;;;17.00;11.57;;;4.20;88.50;;;;;;1891621;76;21093;-47
2022/03/09 05:40:15;;;;;;;15.80;10.53;;;4.20;88.50;;;;;;1891484;76;21031;-48
2022/03/09 05:42:44;;;;;;;18.70;11.25;;;4.30;89.10;;;;;;1891350;76;21006;-47
2022/03/09 05:45:14;;;;;;;15.78;10.25;;;4.30;88.80;;;;;;1891302;76;21136;-47
2022/03/09 05:47:43;;;;;;;14.85;10.25;;;4.30;88.80;;;;;;1891559;76;21096;-46
2022/03/09 05:50:12;;;;;;;17.77;9.83;;;4.40;88.80;;;;;;1891460;76;21112;-47
2022/03/09 05:52:41;;;;;;;13.48;9.70;;;4.40;87.80;;;;;;1891535;75;21100;-47
2022/03/09 05:55:11;;;;;;;16.30;9.95;;;4.40;88.60;;;;;;1891560;76;21011;-48
2022/03/09 05:57:40;;;;;;;18.02;11.03;;;4.50;88.80;;;;;;1891674;76;21124;-48
2022/03/09 06:00:10;;;;;;;19.77;11.60;;;4.50;88.60;;;;;;1891587;76;21023;-47
2022/03/09 06:02:43;;;;;;;18.15;11.43;;;4.60;88.40;;;;;;1891575;76;21046;-47
2022/03/09 06:05:12;;;;;;;16.05;10.05;;;4.60;88.40;;;;;;1891647;76;21030;-47
2022/03/09 06:07:41;;;;;;;16.55;10.18;;;4.70;88.90;;;;;;1891657;76;21457;-48
2022/03/09 06:10:11;;;;;;;17.98;10.38;;;4.70;87.80;;;;;;1891662;76;21100;-48
2022/03/09 06:12:40;;;;;;;13.80;9.83;;;4.70;87.80;;;;;;1891526;76;21046;-47
2022/03/09 06:15:10;;;;;;;21.17;9.83;;;4.70;87.80;;;;;;1891618;76;21132;-48
2022/03/09 06:17:47;;;;;;;13.85;9.43;;;4.80;87.30;;;;;;1891535;76;21030;-47
2022/03/09 06:20:18;;;;;;;15.30;10.38;;;4.80;87.80;;;;;;1891507;76;21014;-47
2022/03/09 06:22:48;;;;;;;17.37;10.93;;;4.80;86.50;;;;;;1891572;76;21042;-47
2022/03/09 06:25:18;;;;;;;16.30;10.28;;;4.80;86.80;;;;;;1891636;76;21136;-47
2022/03/09 06:27:50;;;;;;;15.98;10.43;;;4.80;86.70;;;;;;1891625;76;21022;-47
2022/03/09 06:30:20;;;;;;;16.50;11.65;;;4.70;87.20;;;;;;1891479;75;21030;-47
2022/03/09 06:32:49;;;;;;;16.42;9.50;;;4.70;86.80;;;;;;1891570;76;21104;-47
2022/03/09 06:35:19;;;;;;;16.30;10.35;;;4.70;84.80;;;;;;1891532;76;21045;-47
2022/03/09 06:37:48;;;;;;;11.97;8.55;;;4.70;85.40;;;;;;1891491;75;21159;-47
2022/03/09 06:40:21;;;;;;;12.95;9.63;;;4.60;82.90;;;;;;1891644;76;21042;-47
2022/03/09 06:42:50;;;;;;;19.75;10.72;;;4.50;85.90;;;;;;1891472;76;21080;-47
2022/03/09 06:45:19;;;;;;;15.60;10.58;;;4.50;86.60;;;;;;1891495;75;21034;-47
2022/03/09 06:47:49;;;;;;;13.70;10.08;;;4.50;86.60;;;;;;1891517;76;21065;-47
2022/03/09 06:50:18;;;;;;;18.60;11.08;;;4.60;87.00;;;;;;1891485;75;21139;-47
2022/03/09 06:52:47;;;;;;;18.52;11.00;;;4.60;86.60;;;;;;1891324;76;21088;-47
2022/03/09 06:55:17;;;;;;;15.38;10.63;;;4.70;85.70;;;;;;1891505;76;21030;-48
2022/03/09 06:57:47;;;;;;;13.78;9.65;;;4.60;84.00;;;;;;1891452;76;21022;-47
2022/03/09 07:00:16;;;;;;;13.50;10.50;;;4.50;85.30;;;;;;1891569;76;21088;-47
2022/03/09 07:02:47;;;;;;;16.57;10.38;;;4.50;85.60;;;;;;1891492;76;21128;-47
2022/03/09 07:05:16;;;;;;;18.85;11.43;;;4.50;86.00;;;;;;1891536;76;21027;-48
2022/03/09 07:07:45;;;;;;;15.38;9.83;;;4.50;84.40;;;;;;1891497;76;21014;-47
2022/03/09 07:10:15;;;;;;;15.40;11.43;;;4.50;85.20;;;;;;1891514;76;21054;-49
2022/03/09 07:12:46;;;;;;;17.02;10.82;;;4.50;86.00;;;;;;1891404;76;21046;-48
2022/03/09 07:15:16;;;;;;;15.03;8.65;;;4.60;84.90;;;;;;1891639;75;21054;-47
2022/03/09 07:17:48;;;;;;;11.20;8.05;;;4.50;82.60;;;;;;1891534;76;21014;-46
2022/03/09 07:20:19;;;;;;;14.20;9.20;;;4.50;82.60;;;;;;1891471;75;21186;-48
2022/03/09 07:22:48;;;;;;;13.60;9.00;;;4.40;80.30;;;;;;1891486;76;21038;-47
2022/03/09 07:25:17;;;;;;;13.43;8.20;;;4.30;83.30;;;;;;1891418;76;21023;-47
2022/03/09 07:27:47;;;;;;;13.60;9.43;;;4.30;83.20;;;;;;1891510;76;21027;-48
2022/03/09 07:30:16;;;;;;;13.18;7.97;;;4.30;79.60;;;;;;1891426;75;21002;-47
2022/03/09 07:32:45;;;;;;;13.05;8.78;;;4.20;79.50;;;;;;1891490;76;21048;-47
2022/03/09 07:35:15;;;;;;;13.45;9.68;;;4.20;80.00;;;;;;1891561;76;21030;-50
2022/03/09 07:37:44;;;;;;;15.25;8.93;;;4.20;79.90;;;;;;1891495;76;21092;-46
2022/03/09 07:40:13;;;;;;;9.68;7.22;;;4.20;83.30;;;;;;1890016;76;21026;-47
2022/03/09 07:42:43;;;;;;;14.90;9.48;;;4.50;86.20;;;;;;1890760;76;21088;-47
2022/03/09 07:45:12;;;;;;;13.50;8.70;;;4.90;83.50;;;;;;1890948;76;21031;-47
2022/03/09 07:47:41;;;;;;;12.25;8.28;;;5.10;82.60;;;;;;1890690;76;21035;-51
2022/03/09 07:50:11;;;;;;;12.93;8.20;;;5.20;79.80;;;;;;1890815;76;21070;-52
2022/03/09 07:52:40;;;;;;;11.68;8.70;;;5.10;77.70;;;;;;1890890;76;21062;-52
2022/03/09 07:55:10;;;;;;;19.75;10.90;;;5.10;81.30;;;;;;1890864;75;21484;-56
2022/03/09 07:57:40;;;;;;;17.50;10.75;;;4.90;79.70;;;;;;1890976;76;21167;-53
2022/03/09 08:00:10;;;;;;;15.70;9.98;;;4.80;80.50;;;;;;1890861;76;21097;-48
2022/03/09 09:26:18;;;;;;;16.82;11.05;;;5.50;69.30;;;;;;1972905;73;26331;-54
2022/03/09 09:28:48;;;;;;;21.50;11.57;;;5.60;71.00;;;;;;1948558;73;21469;-55
2022/03/09 09:31:17;;;;;;;9.28;7.40;;;5.60;71.00;;;;;;1948434;73;21019;-53
2022/03/09 09:33:46;;;;;;;11.63;8.58;;;5.60;69.00;;;;;;1948462;73;21445;-50
2022/03/09 09:36:16;;;;;;;16.45;9.70;;;5.50;69.50;;;;;;1948319;73;21030;-53
2022/03/09 09:38:45;;;;;;;15.15;10.05;;;5.40;70.90;;;;;;1948423;73;21107;-50
2022/03/09 09:41:18;;;;;;;12.05;8.30;;;5.30;70.50;;;;;;1948595;73;21018;-50
2022/03/09 09:43:46;;;;;;;11.53;8.73;;;5.40;72.70;;;;;;1948354;73;21089;-54
2022/03/09 09:46:16;;;;;;;12.10;8.13;;;5.50;71.40;;;;;;1948512;73;21019;-53
2022/03/09 09:48:46;;;;;;;17.65;11.73;;;5.60;71.20;;;;;;1948384;73;21023;-49
2022/03/09 09:51:15;;;;;;;12.35;8.78;;;5.60;71.60;;;;;;1948404;73;21070;-52
2022/03/09 09:53:45;;;;;;;11.70;7.60;;;5.70;71.80;;;;;;1948282;73;21042;-53
2022/03/09 09:56:15;;;;;;;23.00;12.23;;;5.80;70.80;;;;;;1948479;73;20999;-56
2022/03/09 09:58:45;;;;;;;18.62;11.28;;;5.70;69.90;;;;;;1948317;73;21151;-50
2022/03/09 10:01:14;;;;;;;17.05;9.95;;;5.70;71.90;;;;;;1948630;73;21117;-54
2022/03/09 10:03:43;;;;;;;18.20;9.25;;;5.70;71.40;;;;;;1948453;73;21002;-49
2022/03/09 10:06:13;;;;;;;11.97;8.35;;;5.60;71.80;;;;;;1948287;73;21070;-53
2022/03/09 10:08:43;;;;;;;11.45;6.62;;;5.70;71.00;;;;;;1948308;73;21147;-53
2022/03/09 10:11:12;;;;;;;11.43;7.58;;;5.70;70.50;;;;;;1944451;73;21530;-50
2022/03/09 10:13:43;;;;;;;29.67;9.98;;;5.70;71.20;;;;;;1948226;73;21081;-53
2022/03/09 10:16:19;;;;;;;14.25;9.90;;;5.60;69.90;;;;;;1948312;73;21015;-51
2022/03/09 10:18:50;;;;;;;13.20;7.70;;;5.60;71.10;;;;;;1948300;73;21027;-53
2022/03/09 10:21:22;;;;;;;20.92;11.83;;;5.50;70.50;;;;;;1948167;73;21512;-53
2022/03/09 10:24:01;;;;;;;11.08;5.78;;;5.50;72.10;;;;;;1948416;73;20983;-48
2022/03/09 10:26:39;;;;;;;18.92;11.12;;;5.50;68.50;;;;;;1948856;73;21046;-54
2022/03/09 10:29:11;;;;;;;14.28;9.93;;;5.50;71.50;;;;;;1947601;73;21085;-55
2022/03/09 10:31:46;;;;;;;12.60;8.55;;;5.50;70.70;;;;;;1948933;73;21104;-55
2022/03/09 10:34:20;;;;;;;16.33;9.97;;;5.40;69.20;;;;;;1948928;73;21132;-52
2022/03/09 10:36:59;;;;;;;;;;;5.40;71.00;;;;;;1950362;73;21304;-54
2022/03/09 10:39:31;;;;;;;11.85;8.28;;;5.40;71.40;;;;;;1948098;73;20104;-53
2022/03/09 10:42:00;;;;;;;9.23;6.87;;;5.60;72.20;;;;;;1947955;74;21061;-51
2022/03/09 10:44:49;;;;;;;5.37;4.80;;;5.70;66.70;;;;;;1947899;74;21074;-52
2022/03/09 10:47:36;;;;;;;6.53;4.62;;;5.70;65.80;;;;;;1948074;74;21090;-54
2022/03/09 10:50:25;;;;;;;11.48;8.10;;;5.70;65.50;;;;;;1946170;74;21501;-53
2022/03/09 10:52:56;;;;;;;9.75;5.33;;;5.70;67.50;;;;;;1948090;74;21089;-52
2022/03/09 10:55:36;;;;;;;10.08;7.40;;;5.60;64.70;;;;;;1948275;73;21080;-51
2022/03/09 10:58:16;;;;;;;6.70;5.37;;;5.60;68.90;;;;;;1947838;74;21031;-48
2022/03/09 11:00:48;;;;;;;11.53;7.80;;;5.70;65.70;;;;;;1948052;74;21015;-55
2022/03/09 11:03:19;;;;;;;12.98;8.08;;;5.60;66.30;;;;;;1948102;74;21101;-55
2022/03/09 11:06:00;;;;;;;14.60;8.40;;;5.60;66.90;;;;;;1947044;74;21467;-53
2022/03/09 11:08:31;;;;;;;8.75;5.87;;;5.60;68.20;;;;;;1947258;74;21179;-53
2022/03/09 11:11:02;;;;;;;11.70;6.87;;;5.50;67.40;;;;;;1948145;74;21015;-54
2022/03/09 11:13:34;;;;;;;10.30;6.95;;;5.60;67.30;;;;;;1948010;73;21054;-49
2022/03/09 11:16:04;;;;;;;11.38;7.80;;;5.60;67.30;;;;;;1948148;74;21525;-56
2022/03/09 11:18:34;;;;;;;16.52;10.05;;;5.60;66.40;;;;;;1947919;74;21015;-52
2022/03/09 11:21:08;;;;;;;12.15;8.28;;;5.50;66.80;;;;;;1947866;73;21096;-56
2022/03/09 11:23:40;;;;;;;9.95;7.58;;;5.50;66.20;;;;;;1948393;74;21081;-54
2022/03/09 11:26:21;;;;;;;9.80;6.53;;;5.60;66.90;;;;;;1947989;74;21130;-54
2022/03/09 11:29:02;;;;;;;9.40;7.33;;;5.60;66.90;;;;;;1948086;73;21140;-54
2022/03/09 11:31:52;;;;;;;8.55;6.33;;;5.70;65.70;;;;;;1947962;74;20983;-54
2022/03/09 11:34:42;;;;;;;9.78;7.85;;;5.70;65.10;;;;;;1947982;74;21548;-55
2022/03/09 11:37:20;;;;;;;13.30;7.15;;;5.70;66.80;;;;;;1947914;73;21003;-54
2022/03/09 11:40:10;;;;;;;11.68;7.65;;;5.80;66.40;;;;;;1948121;74;21151;-52
2022/03/09 11:42:41;;;;;;;9.35;6.78;;;5.80;67.30;;;;;;1947955;74;21062;-55
2022/03/09 11:45:22;;;;;;;10.15;6.55;;;5.90;64.60;;;;;;1948116;74;21082;-55
2022/03/09 11:48:05;;;;;;;5.90;4.67;;;5.90;63.80;;;;;;1947960;73;21477;-54
2022/03/09 11:50:46;;;;;;;10.32;7.30;;;5.80;64.20;;;;;;1947816;73;21078;-55
2022/03/09 11:53:20;;;;;;;10.38;7.53;;;5.80;64.70;;;;;;1946410;74;21095;-55
2022/03/09 11:55:49;;;;;;;12.18;6.70;;;5.70;65.50;;;;;;1941042;74;21144;-54
2022/03/09 11:58:19;;;;;;;7.95;5.45;;;5.70;64.90;;;;;;1948081;74;21054;-53
2022/03/09 12:01:04;;;;;;;13.22;8.50;;;5.70;62.40;;;;;;1948059;74;21093;-55
2022/03/09 12:03:41;;;;;;;11.93;8.45;;;5.60;65.40;;;;;;1948170;74;21027;-53
2022/03/09 12:06:38;;;;;;;11.68;7.65;;;5.50;65.50;;;;;;1948223;73;21105;-46
2022/03/09 12:09:09;;;;;;;11.05;7.28;;;5.50;66.20;;;;;;1908421;74;21015;-47
2022/03/09 12:12:11;;;;;;;12.40;7.72;;;5.50;66.40;;;;;;1948730;74;21019;-48
2022/03/09 12:15:00;;;;;;;11.18;7.47;;;5.60;66.90;;;;;;1948651;74;21010;-49
2022/03/09 12:17:37;;;;;;;12.88;7.35;;;5.50;66.70;;;;;;1948692;74;21031;-51
2022/03/09 12:20:28;;;;;;;11.70;9.13;;;5.40;67.20;;;;;;1948779;74;21043;-52
2022/03/09 12:23:00;;;;;;;11.15;7.72;;;5.30;67.70;;;;;;1948697;74;21022;-52
2022/03/09 12:25:44;;;;;;;10.90;8.20;;;5.20;68.30;;;;;;1948817;74;21092;-50
2022/03/09 12:28:36;;;;;;;12.70;8.78;;;5.20;68.80;;;;;;1948652;74;21082;-51
2022/03/09 12:31:17;;;;;;;17.27;13.50;;;5.10;69.40;;;;;;1948599;74;20995;-50
2022/03/09 12:33:51;;;;;;;11.35;8.68;;;5.10;69.60;;;;;;1948670;74;20983;-52
2022/03/09 12:36:25;;;;;;;10.63;8.67;;;5.10;69.20;;;;;;1948888;74;21136;-53
2022/03/09 12:38:57;;;;;;;15.70;9.58;;;5.10;70.10;;;;;;1948925;74;22196;-54
2022/03/09 12:41:34;;;;;;;11.75;8.28;;;5.10;69.50;;;;;;1948755;74;21086;-54
2022/03/09 12:44:08;;;;;;;8.48;7.05;;;5.10;69.90;;;;;;1948708;74;21011;-52
2022/03/09 12:46:39;;;;;;;11.57;8.53;;;5.10;68.90;;;;;;1947486;74;21019;-51
2022/03/09 12:49:11;;;;;;;11.20;8.30;;;5.00;69.50;;;;;;1948926;74;21019;-50
2022/03/09 12:51:43;;;;;;;10.80;7.53;;;4.90;70.10;;;;;;1948706;74;21101;-50
2022/03/09 12:54:12;;;;;;;10.60;7.85;;;4.90;70.00;;;;;;1946970;74;21019;-50
2022/03/09 12:56:41;;;;;;;12.43;8.25;;;4.90;70.40;;;;;;1948627;74;21022;-50
2022/03/09 12:59:13;;;;;;;12.00;8.50;;;4.90;70.20;;;;;;1948580;73;21066;-50
2022/03/09 13:01:46;;;;;;;14.23;8.15;;;4.90;70.80;;;;;;1948628;74;21089;-52
2022/03/09 13:04:15;;;;;;;15.15;8.45;;;5.00;70.40;;;;;;1946161;74;21464;-51
2022/03/09 13:06:44;;;;;;;11.78;6.75;;;5.00;69.00;;;;;;1948561;73;21093;-49
2022/03/09 13:09:24;;;;;;;15.65;9.48;;;5.00;68.00;;;;;;1948770;74;21018;-52
2022/03/09 13:11:55;;;;;;;13.22;8.75;;;5.00;68.70;;;;;;1948600;74;21038;-50
2022/03/09 13:14:25;;;;;;;10.68;6.58;;;5.00;69.40;;;;;;1948603;74;21015;-49
2022/03/09 13:17:06;;;;;;;11.68;6.37;;;5.00;69.50;;;;;;1948671;74;20998;-51
2022/03/09 13:19:40;;;;;;;13.08;8.53;;;5.10;68.20;;;;;;1948743;74;21076;-52
2022/03/09 13:22:10;;;;;;;14.40;10.32;;;5.10;69.30;;;;;;1948873;74;21578;-49
2022/03/09 13:24:39;;;;;;;8.95;6.58;;;5.10;70.00;;;;;;1948633;74;21019;-49
2022/03/09 13:27:17;;;;;;;10.05;7.37;;;5.20;70.10;;;;;;1944019;74;21043;-49
2022/03/09 13:29:47;;;;;;;14.83;9.55;;;5.20;69.30;;;;;;1935613;74;21039;-50
2022/03/09 13:32:33;;;;;;;17.10;11.60;;;5.20;69.70;;;;;;1935452;74;21019;-48
2022/03/09 13:35:02;;;;;;;21.07;14.60;;;5.20;70.30;;;;;;1935561;74;21020;-49
2022/03/09 13:37:39;;;;;;;7.35;5.15;;;5.20;70.70;;;;;;1935501;74;21020;-49
2022/03/09 13:40:10;;;;;;;9.15;6.85;;;5.20;69.20;;;;;;1935545;74;21515;-49
2022/03/09 13:42:42;;;;;;;12.28;8.58;;;5.10;68.70;;;;;;1935566;74;21043;-49
2022/03/09 13:45:17;;;;;;;11.43;8.80;;;5.10;69.60;;;;;;1935657;74;21067;-49
2022/03/09 13:47:57;;;;;;;8.15;5.80;;;5.00;69.70;;;;;;1935565;74;21023;-51
2022/03/09 13:50:48;;;;;;;11.15;8.08;;;5.00;70.50;;;;;;1935589;74;21085;-50
2022/03/09 13:53:12;;;;;;;13.68;8.53;;;5.00;70.90;;;;;;1934596;74;21128;-50
2022/03/09 13:55:49;;;;;;;10.95;7.90;;;5.10;70.40;;;;;;1935493;74;21063;-50
2022/03/09 13:58:27;;;;;;;12.23;9.20;;;5.00;70.00;;;;;;1935512;74;20999;-49
2022/03/09 14:01:11;;;;;;;13.68;9.25;;;5.00;71.00;;;;;;1935518;74;21015;-51
2022/03/09 14:03:45;;;;;;;15.98;10.48;;;5.00;71.20;;;;;;1935733;74;21023;-50
2022/03/09 14:06:19;;;;;;;10.38;8.80;;;5.00;71.40;;;;;;1935870;74;20991;-49
2022/03/09 14:08:53;;;;;;;15.20;8.45;;;5.00;70.80;;;;;;1935594;74;21096;-49
2022/03/09 14:11:28;;;;;;;11.93;8.33;;;5.00;70.90;;;;;;1935789;74;21091;-49
2022/03/09 14:14:06;;;;;;;9.98;6.80;;;5.00;70.80;;;;;;1934582;74;21055;-50
2022/03/09 14:16:40;;;;;;;12.95;7.97;;;4.90;71.60;;;;;;1935727;74;21077;-48
2022/03/09 14:19:17;;;;;;;15.68;10.48;;;4.90;71.40;;;;;;1935797;74;21011;-51
2022/03/09 14:21:50;;;;;;;15.05;10.50;;;4.90;71.00;;;;;;1935733;74;21066;-50
2022/03/09 14:24:19;;;;;;;17.40;13.25;;;4.80;70.90;;;;;;1935837;74;21015;-50
2022/03/09 14:26:51;;;;;;;15.78;11.97;;;4.80;70.90;;;;;;1935851;74;21027;-51
2022/03/09 14:29:22;;;;;;;18.37;13.80;;;4.80;70.10;;;;;;1948715;73;21015;-49
2022/03/09 14:31:53;;;;;;;16.70;10.38;;;4.80;70.20;;;;;;1948887;74;21128;-48